EW5887 Selfoss IS current weather conditions

sailwx.info

Wind from 205 at 7 knots gusting 11

Air temperature -1.1° C
Dewpoint -1.4° C

Last reported at 2020-Jan-18 20:00 UTC.
Time now 2020-Jan-18 20:40 UTC

Location: N 64°07' W 021°04'.
View on Google Maps.

See reports from other nearby stations

  
Tides and Currents Weather Stations Pressure Air Temp Water Temp Dewpoint Dewpoint Depression Visibility Wind Speed Wind Dir Waves Ship Positions
date/time (UTC)wind fromknots sea level pressurealtimeterstation pressurevisibilityair tempwater tempwave heightnotes
2020-Jan-18 20:00 205 7 gusting 11 -1.1
2020-Jan-18 19:30 182 7 gusting 11 -1.7
2020-Jan-18 19:15 176 6 gusting 9 -1.7
2020-Jan-18 19:00 209 5 gusting 11 -2.2
2020-Jan-18 18:30 163 3 gusting 5 -2.8
2020-Jan-18 18:15 215 -3.3
2020-Jan-18 18:00 229 -3.9
2020-Jan-18 17:30 182 -4.4
2020-Jan-18 17:15 181 -4.4
2020-Jan-18 17:00 284 -5.0
2020-Jan-18 16:30 029 -6.1
2020-Jan-18 16:15 029 -6.1
2020-Jan-18 16:00 029 -5.6
2020-Jan-18 15:30 029 -5.0
2020-Jan-18 15:15 029 -5.0
2020-Jan-18 15:00 029 -4.4
2020-Jan-18 14:30 029 -3.9
2020-Jan-18 14:15 011 -3.9
2020-Jan-18 13:31 309 -3.9
2020-Jan-18 13:17 309 -3.9
2020-Jan-18 13:01 309 -4.4
2020-Jan-18 12:32 309 -4.4
2020-Jan-18 12:19 309 -4.4
2020-Jan-18 12:01 309 -4.4
2020-Jan-18 11:16 058 -4.4
2020-Jan-18 11:03 058 -4.4
2020-Jan-18 10:17 058 -5.0
2020-Jan-18 10:03 058 -5.0
2020-Jan-18 09:31 058 -5.0
2020-Jan-18 09:16 059 1 gusting 3 -5.0
2020-Jan-18 09:01 054 2 gusting 4 -5.0
2020-Jan-18 08:31 172 -5.6
2020-Jan-18 08:15 171 1 gusting 2 -6.1
2020-Jan-18 08:01 200 1 gusting 2 -5.6
2020-Jan-18 07:31 306 -5.6
2020-Jan-18 07:16 044 0 gusting 2 -5.6
2020-Jan-18 07:00 139 0 gusting 3 -6.1
2020-Jan-18 06:30 165 2 gusting 4 -6.1
2020-Jan-18 06:15 150 1 gusting 4 -6.1
2020-Jan-18 06:00 146 3 gusting 4 -6.1
2020-Jan-18 05:30 146 2 gusting 3 -7.2
2020-Jan-18 05:16 146 1 gusting 3 -7.8
2020-Jan-18 05:00 147 2 gusting 5 -7.2
2020-Jan-18 04:31 140 1 gusting 4 -6.7
2020-Jan-18 04:16 159 4 gusting 6 -7.8
2020-Jan-18 04:00 186 4 gusting 6 -6.7
2020-Jan-18 03:30 190 2 gusting 4 -6.1
2020-Jan-18 03:15 229 1 gusting 3 -7.2
2020-Jan-18 03:00 173 -7.2
2020-Jan-18 02:30 192 2 gusting 5 -6.1
2020-Jan-18 02:15 211 -6.7
2020-Jan-18 02:00 211 -6.1
2020-Jan-18 01:17 192 1 gusting 3 -5.6
2020-Jan-18 00:31 286 -5.0
2020-Jan-18 00:16 232 0 gusting 3 -5.0
2020-Jan-18 00:01 328 0 gusting 3 -4.4
2020-Jan-17 23:31 206 -5.0
2020-Jan-17 23:16 188 3 gusting 4 -5.0
2020-Jan-17 23:01 072 0 gusting 3 -3.9
2020-Jan-17 22:31 117 0 gusting 2 -4.4
2020-Jan-17 22:17 011 -4.4
2020-Jan-17 22:04 011 -3.9
2020-Jan-17 21:31 076 3 gusting 5 -3.9
2020-Jan-17 21:15 070 5 gusting 6 -3.9
2020-Jan-17 21:00 065 4 gusting 6 -3.9
2020-Jan-17 20:31 005 1 gusting 2 -5.0
2020-Jan-17 20:15 325 0 gusting 2 -4.4
2020-Jan-17 20:00 062 -4.4
2020-Jan-17 19:30 355 -5.0
2020-Jan-17 19:15 009 -4.4
2020-Jan-17 19:01 010 0 gusting 3 -3.9
2020-Jan-17 18:30 040 2 gusting 4 -3.3
2020-Jan-17 18:15 060 2 gusting 4 -3.3
2020-Jan-17 18:00 063 1 gusting 5 -3.9
2020-Jan-17 17:30 063 3 gusting 5 -3.3
2020-Jan-17 17:16 069 5 gusting 7 -2.2
2020-Jan-17 17:02 017 6 gusting 8 -1.7
2020-Jan-17 16:47 360 6 gusting 10 -1.7
2020-Jan-17 16:32 350 6 gusting 9 -1.7
2020-Jan-17 16:16 024 8 gusting 10 -1.7
2020-Jan-17 16:02 012 7 gusting 10 -1.7
2020-Jan-17 15:47 068 5 gusting 10 -1.1
2020-Jan-17 15:32 028 7 gusting 11 -1.1
2020-Jan-17 15:17 041 7 gusting 10 -1.1
2020-Jan-17 15:02 026 6 gusting 10 -1.1
2020-Jan-17 14:46 030 6 gusting 9 -1.7
2020-Jan-17 14:32 011 7 gusting 9 -1.7
2020-Jan-17 14:16 018 8 gusting 10 -1.1
2020-Jan-17 14:01 345 7 gusting 10 -1.7
2020-Jan-17 13:45 012 7 gusting 10 -1.1
2020-Jan-17 13:31 345 7 gusting 10 -1.7
2020-Jan-17 13:16 348 8 gusting 11 -1.1
2020-Jan-17 13:01 320 8 gusting 11 -1.1
2020-Jan-17 12:45 322 9 gusting 11 -1.1
2020-Jan-17 12:30 320 9 gusting 13 -0.6
2020-Jan-17 12:16 011 9 gusting 13 -0.6
2020-Jan-17 12:01 360 12 gusting 15 -0.6
2020-Jan-17 11:46 355 13 gusting 16 -0.6
2020-Jan-17 11:31 348 13 gusting 16 -0.6
2020-Jan-17 11:15 351 14 gusting 18 -0.6
2020-Jan-17 11:00 351 13 gusting 16 -0.6
2020-Jan-17 10:45 355 14 gusting 18 -0.6
2020-Jan-17 10:31 351 14 gusting 19 -0.6
2020-Jan-17 10:16 349 15 gusting 20 -0.6
2020-Jan-17 10:00 342 17 gusting 21 -0.6
2020-Jan-17 09:45 350 14 gusting 18 -0.6
2020-Jan-17 09:30 338 13 gusting 16 -0.6
2020-Jan-17 09:15 325 11 gusting 16 -0.6
2020-Jan-17 09:03 336 14 gusting 17 -0.6
2020-Jan-17 08:47 344 13 gusting 17 -0.6
2020-Jan-17 08:32 348 15 gusting 18 -0.6
2020-Jan-17 08:17 355 13 gusting 19 -0.0
2020-Jan-17 08:01 341 15 gusting 19 -0.0
2020-Jan-17 07:47 331 16 gusting 19 -0.0
2020-Jan-17 07:32 325 15 gusting 18 -0.0
2020-Jan-17 07:16 325 17 gusting 20 -0.0
2020-Jan-17 07:01 315 17 gusting 21 -0.0
2020-Jan-17 06:47 316 18 gusting 21 -0.0
2020-Jan-17 06:32 323 16 gusting 19 -0.0
2020-Jan-17 06:16 313 13 gusting 15 -0.0
2020-Jan-17 06:01 329 13 gusting 17 -0.0
2020-Jan-17 05:46 307 10 gusting 14 -0.0
2020-Jan-17 05:31 330 12 gusting 15 -0.0
2020-Jan-17 05:16 329 9 gusting 12 -0.0
2020-Jan-17 05:01 327 10 gusting 13 -0.0
2020-Jan-17 04:46 323 9 gusting 14 -0.0
2020-Jan-17 04:30 332 12 gusting 16 -0.0
2020-Jan-17 04:16 321 10 gusting 13 -0.0
2020-Jan-17 04:00 325 10 gusting 14 0.6
2020-Jan-17 03:45 327 11 gusting 14 0.6
2020-Jan-17 03:30 326 7 gusting 10 0.6
2020-Jan-17 03:16 307 6 gusting 12 0.6
2020-Jan-17 03:00 313 10 gusting 12 0.6
2020-Jan-17 02:45 339 9 gusting 12 0.6
2020-Jan-17 02:30 333 8 gusting 9 0.6
2020-Jan-17 02:15 336 6 gusting 10 0.6
2020-Jan-17 02:00 317 8 gusting 11 0.6
2020-Jan-17 01:47 319 7 gusting 11 0.6
2020-Jan-17 01:17 005 5 gusting 7 0.6
2020-Jan-17 01:01 018 8 gusting 11 1.1
2020-Jan-17 00:46 355 5 gusting 7 1.1
2020-Jan-17 00:33 349 7 gusting 10 1.1
2020-Jan-17 00:16 317 9 gusting 14 1.1
2020-Jan-17 00:02 313 10 gusting 13 1.1
2020-Jan-16 23:47 307 7 gusting 11 1.1
2020-Jan-16 23:31 117 0 gusting 5 0.6
2020-Jan-16 23:16 131 0.6
2020-Jan-16 23:01 168 2 gusting 5 0.6
2020-Jan-16 22:46 153 1 gusting 6 0.6
2020-Jan-16 22:32 216 2 gusting 6 0.6
2020-Jan-16 22:16 156 1 gusting 4 0.6
2020-Jan-16 22:01 162 4 gusting 6 0.6
2020-Jan-16 21:46 152 5 gusting 6 0.6
2020-Jan-16 21:31 159 5 gusting 7 0.6
2020-Jan-16 21:15 167 5 gusting 7 0.6
2020-Jan-16 21:00 159 5 gusting 8 0.6
2020-Jan-16 20:45 165 5 gusting 8 0.6
2020-Jan-16 20:30 164 6 gusting 10 0.6
2020-Jan-16 20:15 171 3 gusting 6 0.6
2020-Jan-16 20:00 162 11 gusting 13 0.6